Time;durP1;ratioP1;P1;durP2;ratioP2;P2;SDS_P1;SDS_P2;PMS_P1;PMS_P2;Temp;Humidity;BMP_temperature;BMP_pressure;BME280_temperature;BME280_humidity;BME280_pressure;Samples;Min_cycle;Max_cycle;Signal;HPM_P1;HPM_P2
2023/07/22 00:01:56;;;;;;;5.53;4.00;;;;;;;14.73;100.00;100387.81;4906252;29;20219;-71
2023/07/22 00:04:22;;;;;;;5.57;4.50;;;;;;;14.69;100.00;100392.28;4900924;29;20207;-70
2023/07/22 00:06:49;;;;;;;5.93;4.27;;;;;;;14.79;100.00;100395.78;4903224;29;20267;-71
2023/07/22 00:09:15;;;;;;;5.87;4.00;;;;;;;14.67;100.00;100382.50;4900167;29;20200;-71
2023/07/22 00:11:41;;;;;;;5.23;4.50;;;;;;;14.81;100.00;100387.78;4906432;29;20322;-71
2023/07/22 00:14:09;;;;;;;4.90;4.03;;;;;;;14.93;100.00;100390.41;4904829;29;20214;-70
2023/07/22 00:16:35;;;;;;;4.97;3.67;;;;;;;14.81;100.00;100390.44;4906288;29;20707;-71
2023/07/22 00:19:02;;;;;;;5.27;4.17;;;;;;;14.74;100.00;100384.25;4902969;29;20314;-71
2023/07/22 00:21:29;;;;;;;6.33;4.47;;;;;;;14.62;100.00;100390.53;4905926;29;20734;-69
2023/07/22 00:23:55;;;;;;;4.27;3.87;;;;;;;14.68;100.00;100386.94;4905772;29;20207;-71
2023/07/22 00:26:21;;;;;;;5.00;3.73;;;;;;;14.57;100.00;100380.78;4905483;29;20285;-71
2023/07/22 00:28:48;;;;;;;5.40;4.17;;;;;;;14.45;100.00;100386.16;4905546;29;20208;-72
2023/07/22 00:31:14;;;;;;;5.40;4.00;;;;;;;14.39;100.00;100377.22;4903822;29;20205;-71
2023/07/22 00:33:40;;;;;;;7.57;4.60;;;;;;;14.35;100.00;100388.78;4906287;29;20262;-71
2023/07/22 00:36:07;;;;;;;5.63;4.00;;;;;;;14.34;100.00;100376.34;4903273;29;20282;-71
2023/07/22 00:38:34;;;;;;;6.33;4.30;;;;;;;14.35;100.00;100385.22;4906574;29;20227;-71
2023/07/22 00:41:04;;;;;;;4.13;3.53;;;;;;;14.33;100.00;100387.00;4905920;29;20199;-71
2023/07/22 00:43:31;;;;;;;6.40;4.40;;;;;;;14.34;100.00;100381.66;4901841;29;20869;-71
2023/07/22 00:45:58;;;;;;;7.67;4.40;;;;;;;14.32;100.00;100383.44;4903150;29;20732;-71
2023/07/22 00:48:27;;;;;;;4.73;4.03;;;;;;;14.30;100.00;100393.22;4904818;29;20199;-71
2023/07/22 00:50:53;;;;;;;4.87;4.00;;;;;;;14.23;100.00;100379.91;4903515;29;20281;-71
2023/07/22 00:53:20;;;;;;;4.13;3.73;;;;;;;14.07;100.00;100374.63;4904378;29;20245;-71
2023/07/22 00:55:49;;;;;;;6.40;4.17;;;;;;;13.97;100.00;100375.50;4904548;29;20227;-71
2023/07/22 00:58:15;;;;;;;6.10;4.47;;;;;;;13.89;100.00;100384.38;4900557;29;20557;-72
2023/07/22 01:00:42;;;;;;;8.00;4.10;;;;;;;13.97;100.00;100377.28;4905847;29;20203;-71
2023/07/22 01:03:08;;;;;;;9.40;4.20;;;;;;;14.07;100.00;100382.63;4903803;29;20215;-71
2023/07/22 01:05:39;;;;;;;5.83;4.47;;;;;;;14.09;100.00;100383.50;4905109;29;20215;-72
2023/07/22 01:08:06;;;;;;;7.10;4.40;;;;;;;14.00;100.00;100382.59;4904950;29;20204;-72
2023/07/22 01:10:32;;;;;;;4.73;4.03;;;;;;;13.89;100.00;100381.72;4891591;29;20199;-71
2023/07/22 01:12:58;;;;;;;5.80;3.97;;;;;;;13.96;100.00;100379.06;4903670;29;20625;-72
2023/07/22 01:15:25;;;;;;;4.73;3.97;;;;;;;13.84;100.00;100379.06;4903366;29;20540;-72
2023/07/22 01:17:52;;;;;;;5.53;4.03;;;;;;;13.72;100.00;100382.63;4907853;29;20204;-73
2023/07/22 01:20:20;;;;;;;6.23;4.33;;;;;;;13.66;100.00;100392.38;4909426;29;20727;-73
2023/07/22 01:22:51;;;;;;;4.90;4.17;;;;;;;13.49;100.00;100392.34;4899864;29;20306;-71
2023/07/22 01:25:22;;;;;;;6.07;4.00;;;;;;;13.33;100.00;100386.13;4907193;29;20199;-72
2023/07/22 01:27:50;;;;;;;5.00;4.20;;;;;;;13.29;100.00;100383.44;4909894;29;20230;-72
2023/07/22 01:30:19;;;;;;;6.87;4.50;;;;;;;13.15;100.00;100392.22;4907468;29;20246;-71
2023/07/22 01:32:46;;;;;;;5.83;4.17;;;;;;;13.13;100.00;100387.78;4894611;29;20234;-72
2023/07/22 01:35:13;;;;;;;5.60;4.17;;;;;;;13.07;100.00;100387.78;4887634;29;20215;-72
2023/07/22 01:37:40;;;;;;;5.67;4.47;;;;;;;13.14;100.00;100377.16;4883460;29;20212;-71
2023/07/22 01:40:13;;;;;;;5.37;4.23;;;;;;;13.07;100.00;100382.47;4887898;29;20232;-71
2023/07/22 01:42:41;;;;;;;4.87;4.10;;;;;;;13.04;100.00;100380.69;4887102;29;20228;-71
2023/07/22 01:45:08;;;;;;;6.37;4.60;;;;;;;12.95;100.00;100383.31;4890236;29;20293;-70
2023/07/22 01:47:35;;;;;;;5.57;4.33;;;;;;;12.82;100.00;100381.50;4890180;29;20260;-73
2023/07/22 01:50:08;;;;;;;4.37;3.80;;;;;;;12.63;100.00;100380.50;4888283;29;20203;-72
2023/07/22 01:52:35;;;;;;;5.80;4.63;;;;;;;12.54;100.00;100380.47;4887190;29;20227;-73
2023/07/22 01:55:05;;;;;;;8.30;5.17;;;;;;;12.58;100.00;100384.91;4889686;29;20664;-71
2023/07/22 01:57:32;;;;;;;8.47;4.50;;;;;;;12.54;100.00;100384.00;4889046;29;20212;-72
2023/07/22 01:59:58;;;;;;;6.80;5.00;;;;;;;12.58;100.00;100384.91;4889264;29;20693;-72
2023/07/22 02:02:25;;;;;;;5.83;4.50;;;;;;;12.59;100.00;100378.72;4887048;29;20222;-73
2023/07/22 02:04:51;;;;;;;6.43;5.00;;;;;;;12.60;100.00;100380.50;4889075;29;20199;-72
2023/07/22 02:07:18;;;;;;;5.70;4.53;;;;;;;12.46;100.00;100371.56;4889410;29;20218;-70
2023/07/22 02:09:45;;;;;;;6.83;4.87;;;;;;;12.41;100.00;100375.97;4888991;29;20759;-72
2023/07/22 02:12:11;;;;;;;6.43;4.87;;;;;;;12.33;100.00;100375.91;4883603;29;20268;-71
2023/07/22 02:14:38;;;;;;;6.70;4.53;;;;;;;12.22;100.00;100380.28;4887617;29;20648;-71
2023/07/22 02:17:05;;;;;;;6.73;4.77;;;;;;;12.30;100.00;100382.97;4888399;29;20294;-72
2023/07/22 02:19:32;;;;;;;7.30;4.83;;;;;;;12.41;100.00;100386.59;4887941;29;20258;-71
2023/07/22 02:21:58;;;;;;;6.53;4.50;;;;;;;12.24;100.00;100386.47;4890152;29;20670;-71
2023/07/22 02:24:25;;;;;;;6.97;4.50;;;;;;;12.09;100.00;100376.66;4889915;29;20207;-72
2023/07/22 02:26:51;;;;;;;7.93;4.53;;;;;;;12.03;100.00;100376.63;4888826;29;20209;-71
2023/07/22 02:29:19;;;;;;;7.63;5.13;;;;;;;12.04;100.00;100389.00;4883378;29;20212;-72
2023/07/22 02:31:46;;;;;;;8.13;5.57;;;;;;;12.11;100.00;100384.63;4892591;29;20244;-74
2023/07/22 02:34:13;;;;;;;7.40;4.63;;;;;;;12.18;100.00;100383.78;4907861;29;20201;-71
2023/07/22 02:36:39;;;;;;;6.80;5.00;;;;;;;12.23;100.00;100388.25;4905554;29;20217;-72
2023/07/22 02:39:06;;;;;;;6.73;4.90;;;;;;;12.31;100.00;100396.25;4904378;29;20225;-72
2023/07/22 02:41:32;;;;;;;5.63;4.40;;;;;;;12.23;100.00;100384.72;4893826;29;20309;-73
2023/07/22 02:43:59;;;;;;;9.90;5.30;;;;;;;12.24;100.00;100390.03;4903824;29;20209;-72
2023/07/22 02:46:26;;;;;;;6.10;5.20;;;;;;;12.18;100.00;100400.59;4905951;29;21948;-74
2023/07/22 02:48:53;;;;;;;8.00;5.10;;;;;;;12.21;100.00;100397.09;4908662;29;20204;-73
2023/07/22 02:51:20;;;;;;;6.90;5.23;;;;;;;12.18;100.00;100402.38;4911371;29;20239;-72
2023/07/22 02:53:47;;;;;;;10.33;5.30;;;;;;;12.07;100.00;100396.09;4913423;29;20250;-73
2023/07/22 02:56:13;;;;;;;7.63;5.53;;;;;;;11.94;100.00;100403.06;4913829;29;20584;-73
2023/07/22 02:58:41;;;;;;;7.53;5.40;;;;;;;11.86;100.00;100403.00;4909835;29;20204;-73
2023/07/22 03:01:08;;;;;;;7.13;5.30;;;;;;;11.81;100.00;100395.88;4907614;29;20211;-70
2023/07/22 03:03:36;;;;;;;6.10;5.00;;;;;;;11.77;100.00;100405.56;4909445;29;20308;-73
2023/07/22 03:06:04;;;;;;;7.40;5.20;;;;;;;11.71;100.00;100404.63;4906080;29;20217;-73
2023/07/22 03:08:32;;;;;;;8.37;5.57;;;;;;;11.72;100.00;100404.63;4905231;29;20213;-73
2023/07/22 03:10:59;;;;;;;9.17;5.47;;;;;;;11.72;100.00;100401.97;4903099;29;20288;-74
2023/07/22 03:13:29;;;;;;;7.40;5.40;;;;;;;11.64;100.00;100410.75;4906473;29;20472;-73
2023/07/22 03:15:57;;;;;;;8.07;5.90;;;;;;;11.68;100.00;100405.47;4908190;29;20216;-73
2023/07/22 03:18:23;;;;;;;7.90;5.63;;;;;;;11.67;100.00;100409.00;4903842;29;20231;-72
2023/07/22 03:20:51;;;;;;;8.23;5.63;;;;;;;11.68;100.00;100407.25;4904946;29;20383;-74
2023/07/22 03:23:18;;;;;;;8.43;5.57;;;;;;;11.63;100.00;100406.31;4902254;29;20246;-73
2023/07/22 03:25:44;;;;;;;10.03;5.70;;;;;;;11.58;100.00;100409.78;4909307;29;20288;-73
2023/07/22 03:28:11;;;;;;;7.73;5.73;;;;;;;11.51;100.00;100402.66;4904929;29;20203;-73
2023/07/22 03:30:38;;;;;;;8.93;5.40;;;;;;;11.53;100.00;100416.81;4908057;29;20231;-74
2023/07/22 03:33:05;;;;;;;8.27;5.90;;;;;;;11.71;100.00;100412.56;4901308;29;20231;-75
2023/07/22 03:35:33;;;;;;;8.30;5.40;;;;;;;11.74;100.00;100404.66;4902179;29;20201;-76
2023/07/22 03:38:00;;;;;;;8.37;5.73;;;;;;;11.80;100.00;100408.28;4904665;29;20206;-76
2023/07/22 03:40:28;;;;;;;10.23;5.80;;;;;;;11.74;100.00;100405.53;4905244;29;22949;-75
2023/07/22 03:42:56;;;;;;;7.90;5.47;;;;;;;11.72;100.00;100401.97;4908337;29;20709;-77
2023/07/22 03:45:22;;;;;;;7.70;5.30;;;;;;;11.66;100.00;100412.53;4906119;29;20207;-78
2023/07/22 03:47:54;;;;;;;8.03;5.53;;;;;;;11.65;100.00;100407.22;4903658;29;20591;-79
2023/07/22 03:50:20;;;;;;;9.90;5.90;;;;;;;11.70;100.00;100395.78;4905069;29;20212;-77
2023/07/22 03:52:47;;;;;;;9.73;6.10;;;;;;;11.87;100.00;100398.59;4908750;29;20227;-79
2023/07/22 03:55:13;;;;;;;9.60;5.53;;;;;;;11.89;100.00;100402.13;4886797;29;20214;-81
2023/07/22 03:57:39;;;;;;;9.30;5.90;;;;;;;11.88;100.00;100410.97;4902134;29;20218;-79
2023/07/22 04:00:09;;;;;;;12.47;5.93;;;;;;;11.90;100.00;100399.50;4903675;29;20700;-78
2023/07/22 04:02:36;;;;;;;6.90;5.00;;;;;;;11.91;100.00;100398.63;4903407;29;20662;-79
2023/07/22 04:05:02;;;;;;;7.03;5.33;;;;;;;11.86;100.00;100405.66;4907333;29;20653;-81
2023/07/22 04:07:29;;;;;;;8.67;5.67;;;;;;;11.91;100.00;100408.34;4905576;29;21508;-81
2023/07/22 04:09:55;;;;;;;7.90;5.50;;;;;;;11.90;100.00;100412.78;4904253;29;20206;-78
2023/07/22 04:12:21;;;;;;;8.77;5.57;;;;;;;11.99;100.00;100403.09;4905290;29;20230;-77
2023/07/22 04:14:48;;;;;;;8.80;5.80;;;;;;;12.03;100.00;100405.81;4903448;29;20584;-77
2023/07/22 04:17:15;;;;;;;8.70;5.60;;;;;;;12.13;100.00;100397.03;4906855;29;20201;-77
2023/07/22 04:19:43;;;;;;;9.50;5.40;;;;;;;12.13;100.00;100405.00;4907630;29;20231;-78
2023/07/22 04:22:09;;;;;;;11.43;5.93;;;;;;;12.12;100.00;100397.03;4887643;29;20749;-76
2023/07/22 04:24:36;;;;;;;8.53;5.57;;;;;;;12.27;100.00;100393.56;4904085;29;20235;-76
2023/07/22 04:27:03;;;;;;;8.97;5.60;;;;;;;12.35;100.00;100399.81;4905205;29;20224;-74
2023/07/22 04:29:29;;;;;;;8.07;5.43;;;;;;;12.35;100.00;100394.50;4902544;29;20206;-72
2023/07/22 04:31:59;;;;;;;8.83;5.40;;;;;;;12.39;100.00;100399.84;4927048;23;20250;-75
2023/07/22 04:34:32;;;;;;;8.40;5.60;;;;;;;12.45;100.00;100405.22;4926090;29;20212;-77
2023/07/22 04:36:58;;;;;;;9.07;5.20;;;;;;;12.43;100.00;100401.66;4923977;29;20642;-77
2023/07/22 04:39:25;;;;;;;8.57;5.57;;;;;;;12.44;100.00;100400.78;4922684;29;20770;-76
2023/07/22 04:41:51;;;;;;;9.13;5.50;;;;;;;12.50;100.00;100410.56;4925380;29;20211;-77
2023/07/22 04:44:19;;;;;;;8.33;5.10;;;;;;;12.51;100.00;100412.34;4943656;28;20208;-77
2023/07/22 04:46:45;;;;;;;9.00;6.03;;;;;;;12.58;100.00;100413.25;4944389;28;20262;-77
2023/07/22 04:49:12;;;;;;;8.20;5.77;;;;;;;12.66;100.00;100415.06;4944146;28;20201;-77
2023/07/22 04:51:39;;;;;;;8.23;5.70;;;;;;;12.68;100.00;100412.41;4943914;28;20233;-75
2023/07/22 04:54:06;;;;;;;6.73;4.90;;;;;;;12.73;100.00;100410.66;4944608;28;20202;-75
2023/07/22 04:56:32;;;;;;;9.27;5.53;;;;;;;12.89;100.00;100411.66;4942965;28;20208;-77
2023/07/22 04:58:58;;;;;;;7.43;5.40;;;;;;;13.00;100.00;100412.56;4944404;28;20210;-75
2023/07/22 05:01:25;;;;;;;7.27;5.47;;;;;;;13.07;100.00;100409.94;4942528;28;20417;-72
2023/07/22 05:03:52;;;;;;;8.70;5.80;;;;;;;13.24;100.00;100410.03;4944555;28;20648;-70
2023/07/22 05:06:18;;;;;;;9.20;5.33;;;;;;;13.28;100.00;100409.16;4943635;28;20336;-69
2023/07/22 05:08:44;;;;;;;8.10;6.20;;;;;;;13.46;100.00;100410.97;4944907;28;20206;-69
2023/07/22 05:11:11;;;;;;;7.97;5.60;;;;;;;13.56;100.00;100409.19;4943749;28;20221;-69
2023/07/22 05:13:37;;;;;;;10.77;5.90;;;;;;;13.65;100.00;100404.81;4943731;28;20710;-69
2023/07/22 05:16:04;;;;;;;7.93;5.63;;;;;;;13.79;100.00;100404.81;4945207;28;20701;-68
2023/07/22 05:18:30;;;;;;;9.17;5.50;;;;;;;13.84;100.00;100396.81;4926905;28;20675;-68
2023/07/22 05:20:56;;;;;;;8.27;6.03;;;;;;;13.99;100.00;100403.00;4945242;28;20776;-69
2023/07/22 05:23:23;;;;;;;9.53;5.87;;;;;;;14.09;100.00;100409.25;4943535;28;20304;-66
2023/07/22 05:25:53;;;;;;;7.90;5.57;;;;;;;14.24;100.00;100413.66;4945617;28;20205;-69
2023/07/22 05:28:20;;;;;;;8.73;5.53;;;;;;;14.36;100.00;100416.28;4940348;28;20280;-68
2023/07/22 05:30:50;;;;;;;8.93;5.33;;;;;;;14.45;100.00;100413.69;4942730;28;20198;-68
2023/07/22 05:33:16;;;;;;;8.37;6.03;;;;;;;14.51;100.00;100419.00;4943622;28;20234;-68
2023/07/22 05:35:43;;;;;;;7.53;5.80;;;;;;;14.65;100.00;100417.16;4943182;28;20209;-68
2023/07/22 05:38:13;;;;;;;6.87;5.50;;;;;;;14.82;100.00;100421.56;4943741;28;20659;-69
2023/07/22 05:40:40;;;;;;;7.63;5.60;;;;;;;14.94;100.00;100426.84;4944118;28;20230;-69
2023/07/22 05:43:06;;;;;;;8.60;5.67;;;;;;;15.07;100.00;100422.34;4942863;28;20398;-69
2023/07/22 05:45:32;;;;;;;8.17;5.87;;;;;;;15.23;100.00;100424.97;4943601;28;20205;-67
2023/07/22 05:47:59;;;;;;;7.70;5.63;;;;;;;15.32;100.00;100414.22;4943835;28;20643;-69
2023/07/22 05:50:25;;;;;;;7.87;5.50;;;;;;;15.36;100.00;100415.97;4941869;28;20758;-66
2023/07/22 05:52:52;;;;;;;7.27;5.60;;;;;;;15.44;100.00;100428.38;4945101;28;20245;-67
2023/07/22 05:55:18;;;;;;;7.63;5.30;;;;;;;15.52;100.00;100423.88;4940794;28;20199;-69
2023/07/22 05:57:45;;;;;;;7.53;5.20;;;;;;;15.75;100.00;100416.66;4942694;28;20212;-68
2023/07/22 06:00:13;;;;;;;7.93;5.37;;;;;;;16.03;100.00;100412.00;4942766;28;20218;-66
2023/07/22 06:02:39;;;;;;;8.07;5.40;;;;;;;16.20;100.00;100412.72;4944769;28;20230;-67
2023/07/22 06:05:06;;;;;;;6.53;4.90;;;;;;;16.36;100.00;100423.25;4947268;28;20202;-67
2023/07/22 06:07:32;;;;;;;8.73;5.30;;;;;;;16.61;100.00;100435.50;4945782;28;20204;-67
2023/07/22 06:09:59;;;;;;;6.87;4.90;;;;;;;16.98;98.22;100427.97;4946441;28;20670;-67
2023/07/22 06:12:25;;;;;;;6.67;5.13;;;;;;;17.35;93.72;100423.03;4945863;28;20220;-67
2023/07/22 06:14:57;;;;;;;5.97;5.00;;;;;;;17.77;92.34;100423.34;4947086;28;20220;-67
2023/07/22 06:17:24;;;;;;;6.93;4.90;;;;;;;18.20;87.63;100420.84;4946540;28;20198;-67
2023/07/22 06:19:50;;;;;;;8.13;4.80;;;;;;;18.52;81.59;100420.28;4946044;28;20659;-67
2023/07/22 06:22:16;;;;;;;9.07;5.13;;;;;;;18.76;78.61;100430.56;4947664;28;20226;-67
2023/07/22 06:24:43;;;;;;;6.97;5.23;;;;;;;18.96;78.93;100430.19;4947129;28;20654;-67
2023/07/22 06:27:09;;;;;;;7.33;5.20;;;;;;;19.26;76.61;100434.03;4947222;28;20281;-67
2023/07/22 06:29:36;;;;;;;7.13;5.00;;;;;;;19.55;76.60;100433.41;4947801;28;20198;-68
2023/07/22 06:32:02;;;;;;;7.27;4.67;;;;;;;19.83;76.03;100433.66;4946465;28;20241;-67
2023/07/22 06:34:29;;;;;;;7.17;5.73;;;;;;;19.97;74.63;100428.84;4945652;28;20302;-67
2023/07/22 06:36:55;;;;;;;8.10;5.40;;;;;;;20.13;73.29;100434.75;4945070;28;20209;-67
2023/07/22 06:39:22;;;;;;;7.87;4.70;;;;;;;20.26;72.71;100440.69;4945711;28;20199;-67
2023/07/22 06:41:48;;;;;;;7.50;4.80;;;;;;;20.02;74.47;100440.38;4946750;28;20222;-67
2023/07/22 06:44:15;;;;;;;10.18;4.72;;;;;;;20.19;73.81;100448.03;4945345;28;21695;-67
2023/07/22 06:46:41;;;;;;;6.47;4.93;;;;;;;20.00;74.51;100452.94;4945426;28;20297;-67
2023/07/22 06:49:07;;;;;;;6.47;4.90;;;;;;;19.82;73.82;100455.22;4946706;28;20257;-67
2023/07/22 06:51:34;;;;;;;6.20;5.05;;;;;;;19.72;74.79;100446.47;4941752;28;20198;-67
2023/07/22 06:54:02;;;;;;;7.32;5.78;;;;;;;19.74;74.28;100447.34;4944890;28;20226;-67
2023/07/22 06:56:29;;;;;;;10.65;6.65;;;;;;;19.62;74.66;100448.50;4945758;28;20205;-67
2023/07/22 06:58:56;;;;;;;8.48;5.82;;;;;;;19.70;74.48;100451.00;4945483;28;20198;-67
2023/07/22 07:01:25;;;;;;;10.18;5.50;;;;;;;19.71;73.10;100444.72;4942501;28;20720;-67
2023/07/22 07:03:51;;;;;;;13.17;6.00;;;;;;;19.75;72.52;100443.72;4945049;28;20273;-67
2023/07/22 07:06:18;;;;;;;10.45;6.63;;;;;;;19.97;72.35;100452.16;4945072;28;20355;-68
2023/07/22 07:08:44;;;;;;;9.07;6.63;;;;;;;20.03;71.24;100443.97;4944213;28;20648;-67
2023/07/22 07:11:11;;;;;;;10.70;7.47;;;;;;;20.16;70.37;100441.84;4942872;28;20565;-68
2023/07/22 07:13:37;;;;;;;9.40;6.50;;;;;;;20.81;67.04;100436.53;4941088;28;20333;-67
2023/07/22 07:16:24;;;;;;;10.17;7.10;;;;;;;21.37;64.25;100434.97;4942199;28;20202;-67
2023/07/22 07:18:52;;;;;;;9.83;5.80;;;;;;;21.94;60.82;100436.75;4942492;28;20202;-67
2023/07/22 07:21:21;;;;;;;8.33;6.43;;;;;;;22.15;60.03;100437.91;4945435;28;20213;-68
2023/07/22 07:23:48;;;;;;;9.80;6.50;;;;;;;21.65;61.32;100440.41;4941328;28;20699;-67
2023/07/22 07:26:15;;;;;;;8.27;5.80;;;;;;;21.57;61.97;100439.72;4942411;28;20198;-67
2023/07/22 07:28:42;;;;;;;9.15;6.28;;;;;;;21.37;62.06;100436.78;4945161;28;20210;-67
2023/07/22 07:31:08;;;;;;;9.02;6.00;;;;;;;21.42;61.94;100440.19;4943066;28;20210;-67
2023/07/22 07:33:35;;;;;;;8.45;6.47;;;;;;;21.37;63.60;100440.34;4945619;28;20236;-67
2023/07/22 07:36:01;;;;;;;8.20;6.10;;;;;;;21.45;63.94;100446.38;4945875;28;20209;-67
2023/07/22 07:38:28;;;;;;;9.50;6.63;;;;;;;21.89;63.06;100444.09;4944170;28;20522;-67
2023/07/22 07:41:03;;;;;;;9.63;6.60;;;;;;;22.61;59.69;100439.03;4946058;28;20224;-67
2023/07/22 07:43:30;;;;;;;9.95;6.70;;;;;;;23.59;55.04;100442.59;4944473;28;20236;-68
2023/07/22 07:46:14;;;;;;;9.15;6.10;;;;;;;24.86;49.49;100434.63;4944388;28;20214;-68
2023/07/22 07:48:41;;;;;;;9.90;5.93;;;;;;;25.71;45.55;100437.94;4945899;28;20213;-68
2023/07/22 07:51:07;;;;;;;6.93;5.65;;;;;;;27.37;42.11;100440.22;4944849;28;20237;-68
2023/07/22 07:53:34;;;;;;;8.98;6.13;;;;;;;28.12;39.50;100439.59;4946743;28;20222;-67
2023/07/22 07:56:00;;;;;;;6.78;5.07;;;;;;;28.70;38.45;100442.47;4943324;28;20230;-68
2023/07/22 07:58:26;;;;;;;10.25;6.00;;;;;;;28.61;39.14;100445.78;4945549;28;20919;-67
2023/07/22 08:00:53;;;;;;;8.70;5.88;;;;;;;29.44;37.90;100446.16;4945683;28;20710;-67
2023/07/22 08:03:20;;;;;;;10.52;6.90;;;;;;;29.67;37.19;100444.69;4944848;28;20248;-68
2023/07/22 08:05:46;;;;;;;8.98;6.40;;;;;;;29.85;37.78;100447.06;4942907;28;20202;-68
2023/07/22 08:08:13;;;;;;;7.00;5.65;;;;;;;29.85;37.42;100441.59;4942544;28;20206;-68
2023/07/22 08:10:40;;;;;;;8.48;6.03;;;;;;;29.38;37.76;100450.13;4944798;28;20198;-68
2023/07/22 08:13:07;;;;;;;9.18;6.03;;;;;;;29.10;38.56;100453.69;4945725;28;22204;-68
2023/07/22 08:15:34;;;;;;;10.00;6.28;;;;;;;29.50;37.78;100438.44;4944621;28;20213;-68
2023/07/22 08:18:00;;;;;;;8.73;6.03;;;;;;;28.49;39.60;100442.91;4944155;28;20202;-68
2023/07/22 08:20:27;;;;;;;8.48;5.50;;;;;;;27.27;40.57;100444.44;4944722;28;20253;-68
2023/07/22 08:22:53;;;;;;;8.93;5.88;;;;;;;26.74;43.64;100440.84;4944275;28;20222;-68
2023/07/22 08:25:19;;;;;;;9.20;6.82;;;;;;;26.46;45.33;100443.28;4941586;28;20668;-68
2023/07/22 08:27:46;;;;;;;9.55;5.88;;;;;;;26.52;44.50;100438.41;4945745;28;20241;-68
2023/07/22 08:30:12;;;;;;;8.63;6.05;;;;;;;26.54;44.81;100441.91;4942933;28;20217;-68
2023/07/22 08:32:39;;;;;;;8.80;5.43;;;;;;;26.00;45.43;100437.38;4943224;28;20694;-68
2023/07/22 08:35:06;;;;;;;10.43;5.45;;;;;;;26.25;45.61;100437.03;4946233;28;20206;-68
2023/07/22 08:37:33;;;;;;;7.90;4.85;;;;;;;26.54;45.33;100439.19;4941960;28;20209;-68
2023/07/22 08:39:59;;;;;;;6.43;4.95;;;;;;;26.75;43.87;100433.59;4940476;28;20202;-68
2023/07/22 08:42:30;;;;;;;8.07;4.85;;;;;;;26.27;44.57;100431.53;4945249;28;20781;-67
2023/07/22 08:45:00;;;;;;;8.05;5.00;;;;;;;26.06;44.97;100431.66;4945509;28;20686;-68
2023/07/22 08:47:30;;;;;;;7.47;4.90;;;;;;;25.92;45.67;100426.91;4942001;28;20238;-68
2023/07/22 08:50:00;;;;;;;6.03;4.25;;;;;;;25.72;44.36;100437.00;4942615;28;20237;-68
2023/07/22 08:52:27;;;;;;;7.50;4.07;;;;;;;25.69;44.94;100439.84;4941928;28;20232;-68
2023/07/22 08:54:54;;;;;;;6.93;3.65;;;;;;;26.27;44.78;100431.53;4944782;28;20666;-68
2023/07/22 08:57:21;;;;;;;5.93;4.00;;;;;;;26.83;43.33;100436.81;4927411;28;20198;-68
2023/07/22 08:59:49;;;;;;;9.45;4.07;;;;;;;27.05;42.42;100431.09;4942684;28;20214;-68
2023/07/22 09:02:16;;;;;;;5.00;3.95;;;;;;;27.05;42.38;100433.81;4942881;28;20237;-68
2023/07/22 09:04:42;;;;;;;4.85;3.80;;;;;;;26.89;42.66;100432.88;4942216;28;20210;-68
2023/07/22 09:07:11;;;;;;;6.13;3.28;;;;;;;27.06;41.99;100427.44;4944490;28;20198;-68
2023/07/22 09:09:38;;;;;;;8.48;3.92;;;;;;;26.72;43.20;100431.91;4945545;28;20198;-68
2023/07/22 09:12:06;;;;;;;6.03;4.07;;;;;;;26.35;44.35;100427.50;4942769;28;20638;-68
2023/07/22 09:14:34;;;;;;;6.35;4.18;;;;;;;26.50;42.98;100425.84;4944070;28;20206;-68
2023/07/22 09:17:04;;;;;;;5.13;4.03;;;;;;;26.27;44.24;100432.41;4943317;28;20287;-69
2023/07/22 09:19:30;;;;;;;4.28;3.78;;;;;;;26.18;44.12;100433.75;4926413;28;20225;-68
2023/07/22 09:21:58;;;;;;;6.07;3.67;;;;;;;26.60;43.11;100429.84;4943582;28;20767;-68
2023/07/22 09:24:28;;;;;;;9.02;3.80;;;;;;;26.17;42.54;100421.16;4944210;28;20558;-68
2023/07/22 09:26:54;;;;;;;4.55;3.83;;;;;;;26.02;41.41;100426.47;4941914;28;20206;-70
2023/07/22 09:29:33;;;;;;;4.88;3.55;;;;;;;25.67;42.81;100430.91;4941902;28;20683;-68
2023/07/22 09:32:00;;;;;;;5.28;3.47;;;;;;;26.05;42.69;100420.91;4941389;28;20235;-68
2023/07/22 09:34:27;;;;;;;4.20;3.20;;;;;;;26.21;42.05;100425.47;4943848;28;20206;-68
2023/07/22 09:36:55;;;;;;;5.07;3.40;;;;;;;26.30;41.70;100423.22;4943150;28;20209;-68
2023/07/22 09:39:24;;;;;;;6.05;3.70;;;;;;;25.99;42.08;100413.03;4945154;28;20198;-67
2023/07/22 09:41:52;;;;;;;4.78;3.35;;;;;;;26.01;40.58;100412.00;4950486;28;20809;-67
2023/07/22 09:44:19;;;;;;;8.25;3.78;;;;;;;25.87;41.10;100409.97;4934763;28;20789;-67
2023/07/22 09:46:49;;;;;;;7.88;3.53;;;;;;;26.08;40.71;100413.47;4944678;28;20213;-66
2023/07/22 09:49:17;;;;;;;7.38;3.40;;;;;;;26.16;38.52;100402.22;4943069;28;20190;-67
2023/07/22 09:51:44;;;;;;;5.57;3.58;;;;;;;26.15;39.67;100404.06;4943794;28;20206;-67
2023/07/22 09:54:31;;;;;;;4.85;3.40;;;;;;;26.26;39.55;100399.91;4941882;28;20315;-67
2023/07/22 09:56:58;;;;;;;6.47;3.75;;;;;;;26.02;38.04;100402.94;4946573;28;20237;-67
2023/07/22 09:59:28;;;;;;;5.97;3.45;;;;;;;25.98;39.13;100403.13;4946441;28;20229;-66
2023/07/22 10:01:54;;;;;;;6.45;3.72;;;;;;;25.76;39.51;100393.34;4946843;28;20229;-67
2023/07/22 10:04:24;;;;;;;6.25;3.30;;;;;;;26.15;39.63;100386.88;4942736;28;20277;-66
2023/07/22 10:06:51;;;;;;;5.95;3.80;;;;;;;26.73;37.33;100392.91;4945292;28;20650;-67
2023/07/22 10:09:18;;;;;;;4.50;3.20;;;;;;;27.03;37.00;100392.25;4943516;28;20777;-66
2023/07/22 10:11:44;;;;;;;4.78;3.42;;;;;;;27.29;36.78;100389.00;4942768;28;20281;-66
2023/07/22 10:14:13;;;;;;;4.55;3.50;;;;;;;27.50;35.65;100381.44;4942719;28;20650;-66
2023/07/22 10:16:41;;;;;;;6.68;3.60;;;;;;;27.73;35.60;100370.16;4946328;28;20198;-66
2023/07/22 10:19:09;;;;;;;5.00;3.20;;;;;;;28.32;34.88;100376.69;4941498;28;20682;-70
2023/07/22 10:21:38;;;;;;;5.47;3.50;;;;;;;27.92;35.49;100372.69;4936888;28;20599;-70
2023/07/22 10:24:05;;;;;;;4.72;3.65;;;;;;;26.93;35.91;100374.66;4942722;28;20257;-71
2023/07/22 10:26:32;;;;;;;4.95;3.10;;;;;;;27.03;37.27;100368.66;4936481;28;20202;-70
2023/07/22 10:29:08;;;;;;;6.03;3.67;;;;;;;27.44;35.99;100374.50;4939918;28;20336;-71
2023/07/22 10:31:35;;;;;;;4.00;3.20;;;;;;;27.42;36.13;100371.00;4938178;28;20273;-70
2023/07/22 10:34:01;;;;;;;11.43;3.50;;;;;;;26.59;37.27;100372.88;4943268;23;20239;-69
2023/07/22 10:36:31;;;;;;;6.35;3.67;;;;;;;25.71;39.36;100372.84;4918343;29;20208;-70
2023/07/22 10:38:59;;;;;;;7.50;3.25;;;;;;;26.29;38.35;100365.31;4920510;29;20329;-71
2023/07/22 10:41:29;;;;;;;4.97;3.35;;;;;;;26.74;37.46;100372.03;4918450;29;21434;-69
2023/07/22 10:43:59;;;;;;;5.85;3.47;;;;;;;26.71;37.07;100359.50;4933063;28;20306;-71
2023/07/22 10:46:35;;;;;;;6.00;3.50;;;;;;;26.63;37.69;100366.31;4936849;28;20202;-70
2023/07/22 10:49:12;;;;;;;5.60;3.50;;;;;;;26.66;38.25;100358.88;4943638;28;20198;-68
2023/07/22 10:51:39;;;;;;;4.32;3.50;;;;;;;26.52;38.48;100356.91;4944055;28;20277;-72
2023/07/22 10:54:30;;;;;;;4.57;3.33;;;;;;;26.29;38.92;100349.03;4924952;29;20229;-72
2023/07/22 10:56:56;;;;;;;4.75;3.70;;;;;;;26.72;38.16;100353.09;4940326;28;20195;-68
2023/07/22 10:59:27;;;;;;;21.15;15.20;;;;;;;26.75;37.57;100361.09;4941142;28;20205;-70
2023/07/22 11:01:53;;;;;;;9.75;6.18;;;;;;;26.62;37.58;100351.84;4944740;28;20658;-69
2023/07/22 11:04:20;;;;;;;6.38;3.50;;;;;;;25.81;38.64;100342.44;4945048;28;20221;-67
2023/07/22 11:06:47;;;;;;;5.30;3.63;;;;;;;25.88;38.92;100348.44;4939534;28;20202;-67
2023/07/22 11:09:34;;;;;;;6.60;3.53;;;;;;;25.57;39.37;100341.78;4942101;28;20202;-70
2023/07/22 11:12:08;;;;;;;4.50;3.63;;;;;;;25.87;39.80;100341.25;4944162;28;20208;-71
2023/07/22 11:14:39;;;;;;;5.60;3.55;;;;;;;25.92;39.01;100340.06;4943978;28;20206;-69
2023/07/22 11:17:08;;;;;;;4.13;3.33;;;;;;;25.64;39.01;100334.25;4943443;28;20209;-68
2023/07/22 11:19:35;;;;;;;7.00;4.00;;;;;;;25.82;39.32;100327.03;4938689;29;20857;-70
2023/07/22 11:22:01;;;;;;;7.10;4.88;;;;;;;26.60;38.43;100317.56;4940877;29;20218;-70